Time;durP1;ratioP1;P1;durP2;ratioP2;P2;SDS_P1;SDS_P2;PMS_P1;PMS_P2;Temp;Humidity;BMP_temperature;BMP_pressure;BME280_temperature;BME280_humidity;BME280_pressure;Samples;Min_cycle;Max_cycle;Signal;HPM_P1;HPM_P2
2024/01/29 00:01:23;;;;;;;;;19.75;17.50;;;;;6.68;65.90;102373.34;4947731;28;11573;-67
2024/01/29 00:03:50;;;;;;;;;21.75;17.00;;;;;6.75;65.94;102368.31;4963053;28;12403;-70
2024/01/29 00:06:17;;;;;;;;;15.50;15.50;;;;;6.75;65.67;102369.16;4957342;28;11573;-68
2024/01/29 00:08:43;;;;;;;;;18.25;17.25;;;;;6.64;66.62;102372.78;4947736;28;11726;-67
2024/01/29 00:11:10;;;;;;;;;21.25;18.25;;;;;6.59;65.93;102366.97;4952022;28;11569;-67
2024/01/29 00:13:37;;;;;;;;;19.50;16.50;;;;;6.54;66.00;102368.34;4953536;28;11567;-67
2024/01/29 00:16:05;;;;;;;;;18.50;14.00;;;;;6.59;66.09;102361.59;4939968;28;11627;-67
2024/01/29 00:18:31;;;;;;;;;14.50;14.50;;;;;6.65;65.96;102360.25;4952740;28;12376;-68
2024/01/29 00:20:58;;;;;;;;;20.00;16.50;;;;;6.69;65.97;102356.34;4943844;28;11606;-67
2024/01/29 00:23:25;;;;;;;;;19.50;15.00;;;;;6.62;66.19;102366.69;4951506;28;11567;-67
2024/01/29 00:25:51;;;;;;;;;17.00;16.25;;;;;6.60;66.52;102367.81;4950947;29;11705;-68
2024/01/29 00:28:18;;;;;;;;;17.25;15.00;;;;;6.54;66.48;102369.19;4943490;28;11596;-67
2024/01/29 00:30:44;;;;;;;;;17.00;15.75;;;;;6.55;66.29;102356.66;4951935;28;11696;-67
2024/01/29 00:33:11;;;;;;;;;19.00;14.00;;;;;6.57;66.59;102358.22;4938733;29;11595;-67
2024/01/29 00:35:38;;;;;;;;;18.00;14.75;;;;;6.57;66.39;102360.06;4952155;29;11618;-67
2024/01/29 00:38:05;;;;;;;;;15.50;14.50;;;;;6.53;66.98;102353.28;4951682;28;12325;-67
2024/01/29 00:40:33;;;;;;;;;20.75;17.25;;;;;6.48;66.83;102364.34;4950865;28;11647;-69
2024/01/29 00:43:03;;;;;;;;;14.25;14.25;;;;;6.55;67.22;102362.00;4942615;29;12307;-68
2024/01/29 00:45:30;;;;;;;;;18.50;18.25;;;;;6.49;66.86;102375.91;4952008;28;11702;-68
2024/01/29 00:47:56;;;;;;;;;16.75;16.75;;;;;6.50;66.33;102372.25;4934426;29;11682;-67
2024/01/29 00:50:23;;;;;;;;;19.50;19.50;;;;;6.50;67.18;102377.59;4952885;28;11567;-67
2024/01/29 00:52:49;;;;;;;;;13.00;13.00;;;;;6.47;67.11;102378.69;4931465;29;11707;-66
2024/01/29 00:55:16;;;;;;;;;21.25;17.75;;;;;6.50;67.02;102397.19;4957526;28;11601;-67
2024/01/29 00:57:43;;;;;;;;;17.75;17.75;;;;;6.40;66.66;102394.44;4935657;28;11716;-67
2024/01/29 01:00:10;;;;;;;;;17.50;17.50;;;;;6.40;66.73;102396.22;4924921;28;11740;-67
2024/01/29 01:02:37;;;;;;;;;15.75;14.25;;;;;6.48;66.61;102400.94;4950933;28;11633;-65
2024/01/29 01:05:04;;;;;;;;;17.75;15.00;;;;;6.49;67.27;102392.81;4958876;28;11651;-65
2024/01/29 01:07:31;;;;;;;;;17.50;16.50;;;;;6.50;66.79;102407.03;4952111;28;11611;-66
2024/01/29 01:09:57;;;;;;;;;24.00;19.50;;;;;6.47;67.77;102401.94;4942792;28;11735;-65
2024/01/29 01:12:24;;;;;;;;;12.25;12.00;;;;;6.46;67.97;102403.75;4949066;29;11730;-66
2024/01/29 01:14:51;;;;;;;;;19.00;15.75;;;;;6.47;67.80;102413.47;4949312;28;11570;-67
2024/01/29 01:17:18;;;;;;;;;14.25;14.25;;;;;6.43;67.89;102401.34;4929838;29;11608;-66
2024/01/29 01:19:44;;;;;;;;;13.25;13.00;;;;;6.41;68.19;102405.97;4942215;28;11571;-67
2024/01/29 01:22:13;;;;;;;;;18.00;17.00;;;;;6.39;68.31;102411.44;4937111;29;11647;-67
2024/01/29 01:24:39;;;;;;;;;17.00;14.75;;;;;6.37;68.75;102410.75;4963287;28;11600;-67
2024/01/29 01:27:06;;;;;;;;;12.00;12.00;;;;;6.33;68.68;102413.81;4931863;29;11591;-66
2024/01/29 01:29:32;;;;;;;;;15.00;15.00;;;;;6.30;69.11;102406.03;4952584;28;11578;-67
2024/01/29 01:31:59;;;;;;;;;15.75;15.75;;;;;6.27;69.03;102403.59;4950038;29;11663;-69
2024/01/29 01:34:26;;;;;;;;;16.75;14.00;;;;;6.27;68.92;102406.28;4951177;28;12282;-67
2024/01/29 01:36:53;;;;;;;;;13.50;13.00;;;;;6.26;69.60;102418.78;4933836;28;11585;-68
2024/01/29 01:39:19;;;;;;;;;18.50;16.25;;;;;6.26;69.20;102416.13;4939666;28;12373;-67
2024/01/29 01:41:50;;;;;;;;;17.00;14.75;;;;;6.24;69.00;102409.19;4954435;28;11678;-67
2024/01/29 01:44:17;;;;;;;;;17.50;16.75;;;;;6.22;68.82;102405.81;4957130;28;11647;-67
2024/01/29 01:46:43;;;;;;;;;19.00;17.25;;;;;6.16;69.47;102417.88;4956726;28;11600;-67
2024/01/29 01:49:11;;;;;;;;;18.00;15.75;;;;;6.15;69.62;102410.81;4916962;28;1064397;-67
2024/01/29 01:51:39;;;;;;;;;19.50;19.25;;;;;6.14;69.46;102414.47;4954600;28;11577;-68
2024/01/29 01:54:07;;;;;;;;;16.75;15.75;;;;;6.14;69.47;102407.28;4954637;28;11557;-67
2024/01/29 01:56:37;;;;;;;;;20.75;19.75;;;;;6.07;69.64;102399.91;4951645;28;11590;-67
2024/01/29 01:59:04;;;;;;;;;15.50;14.00;;;;;6.01;69.66;102400.41;4955888;28;11692;-67
2024/01/29 02:01:31;;;;;;;;;18.00;17.00;;;;;6.06;69.79;102400.88;4946177;28;11619;-67
2024/01/29 02:03:58;;;;;;;;;15.75;15.75;;;;;6.06;69.08;102396.38;4960783;28;11604;-67
2024/01/29 02:06:25;;;;;;;;;16.50;16.00;;;;;6.05;70.40;102410.72;4958317;28;12328;-67
2024/01/29 02:08:53;;;;;;;;;16.00;15.50;;;;;6.07;70.46;102397.22;4954354;28;11714;-67
2024/01/29 02:11:19;;;;;;;;;13.75;13.00;;;;;6.07;70.00;102391.88;4952307;28;11709;-67
2024/01/29 02:13:46;;;;;;;;;15.75;15.75;;;;;6.02;70.56;102396.75;4947628;28;12514;-66
2024/01/29 02:16:12;;;;;;;;;17.00;15.25;;;;;6.01;70.31;102390.56;4959992;28;11585;-69
2024/01/29 02:18:39;;;;;;;;;19.75;17.00;;;;;5.99;70.42;102392.50;4956907;28;11569;-66
2024/01/29 02:21:06;;;;;;;;;20.50;17.00;;;;;5.97;70.63;102391.81;4954135;28;12635;-67
2024/01/29 02:23:33;;;;;;;;;16.25;13.50;;;;;5.99;70.56;102395.19;4952144;28;11606;-67
2024/01/29 02:25:59;;;;;;;;;16.00;15.25;;;;;5.99;70.42;102392.50;4940957;28;11722;-66
2024/01/29 02:28:27;;;;;;;;;17.00;16.25;;;;;5.94;70.33;102398.22;4953800;28;11573;-67
2024/01/29 02:30:54;;;;;;;;;16.00;15.75;;;;;5.96;70.79;102406.16;4953799;28;11591;-66
2024/01/29 02:33:21;;;;;;;;;12.00;10.00;;;;;5.98;70.61;102403.34;4956197;28;11573;-67
2024/01/29 02:35:48;;;;;;;;;15.00;12.75;;;;;5.98;70.76;102409.53;4943549;28;12275;-66
2024/01/29 02:38:15;;;;;;;;;13.50;13.25;;;;;5.94;70.56;102400.91;4935593;28;11575;-67
2024/01/29 02:40:41;;;;;;;;;18.50;16.25;;;;;5.91;71.44;102400.28;4938479;28;11654;-67
2024/01/29 02:43:08;;;;;;;;;15.25;14.75;;;;;5.89;71.34;102408.44;4958300;28;11559;-67
2024/01/29 02:45:35;;;;;;;;;14.75;13.00;;;;;5.87;71.32;102409.50;4936959;28;12357;-67
2024/01/29 02:48:02;;;;;;;;;15.00;14.00;;;;;5.86;71.61;102411.34;4950086;28;11587;-70
2024/01/29 02:50:29;;;;;;;;;16.50;13.50;;;;;5.88;71.69;102409.41;4951264;28;11643;-66
2024/01/29 02:52:57;;;;;;;;;15.00;13.00;;;;;5.85;71.61;102415.00;4939845;28;11585;-67
2024/01/29 02:55:24;;;;;;;;;22.50;16.25;;;;;5.83;71.86;102416.94;4959556;28;11593;-67
2024/01/29 02:57:51;;;;;;;;;17.00;16.25;;;;;5.84;72.12;102412.47;4963786;28;11567;-67
2024/01/29 03:00:18;;;;;;;;;23.25;19.00;;;;;5.83;71.64;102427.63;4948963;28;11673;-67
2024/01/29 03:02:44;;;;;;;;;16.50;14.50;;;;;5.81;71.83;102429.59;4956553;28;11567;-67
2024/01/29 03:05:11;;;;;;;;;18.50;13.25;;;;;5.83;72.28;102438.31;4956413;28;11555;-66
2024/01/29 03:07:37;;;;;;;;;16.75;16.00;;;;;5.82;72.00;102441.97;4963106;28;11783;-66
2024/01/29 03:10:04;;;;;;;;;12.50;12.50;;;;;5.84;72.12;102434.69;4953378;28;11639;-66
2024/01/29 03:12:31;;;;;;;;;18.50;15.25;;;;;5.81;72.32;102447.44;4951493;28;11729;-66
2024/01/29 03:14:58;;;;;;;;;13.00;12.00;;;;;5.82;72.14;102441.13;4935867;28;11676;-67
2024/01/29 03:17:28;;;;;;;;;18.25;17.50;;;;;5.81;72.28;102437.59;4958650;28;11606;-66
2024/01/29 03:19:56;;;;;;;;;18.75;17.00;;;;;5.83;71.84;102440.13;4951075;28;11553;-66
2024/01/29 03:22:23;;;;;;;;;30.75;19.25;;;;;5.79;72.05;102431.50;4952368;28;11581;-66
2024/01/29 03:24:49;;;;;;;;;19.75;15.00;;;;;5.74;72.56;102443.56;4963466;28;11614;-66
2024/01/29 03:27:16;;;;;;;;;19.50;16.75;;;;;5.76;72.73;102442.47;4938854;28;11572;-67
2024/01/29 03:29:43;;;;;;;;;20.75;18.25;;;;;5.73;72.56;102434.69;4952773;28;11580;-66
2024/01/29 03:32:09;;;;;;;;;16.50;16.50;;;;;5.74;72.46;102422.19;4955732;28;11551;-66
2024/01/29 03:34:40;;;;;;;;;19.75;18.50;;;;;5.74;72.50;102419.50;4947556;28;12109;-66
2024/01/29 03:37:07;;;;;;;;;19.00;16.00;;;;;5.68;72.37;102420.88;4946427;28;11593;-66
2024/01/29 03:39:34;;;;;;;;;16.00;15.00;;;;;5.68;72.88;102412.84;4945944;28;11608;-66
2024/01/29 03:42:00;;;;;;;;;16.75;15.25;;;;;5.69;72.52;102417.22;4952379;28;11604;-66
2024/01/29 03:44:27;;;;;;;;;15.00;14.25;;;;;5.68;73.04;102407.50;4956545;28;11664;-66
2024/01/29 03:46:53;;;;;;;;;16.00;13.00;;;;;5.66;73.00;102410.28;4957207;28;11596;-66
2024/01/29 03:49:20;;;;;;;;;16.50;12.50;;;;;5.65;73.14;102408.59;4966212;23;11721;-68
2024/01/29 03:51:47;;;;;;;;;15.75;14.25;;;;;5.69;73.26;102414.53;4948337;28;11617;-67
2024/01/29 03:54:13;;;;;;;;;16.75;16.00;;;;;5.67;73.25;102411.13;4962700;28;11482;-68
2024/01/29 03:56:40;;;;;;;;;15.00;14.75;;;;;5.63;73.28;102421.25;4952820;28;12152;-67
2024/01/29 03:59:10;;;;;;;;;17.25;14.50;;;;;5.65;73.36;102424.63;4938701;28;11487;-68
2024/01/29 04:01:38;;;;;;;;;17.00;15.75;;;;;5.66;73.54;102428.97;4927234;28;11456;-68
2024/01/29 04:04:09;;;;;;;;;13.00;13.00;;;;;5.64;73.68;102409.56;4916840;29;11460;-68
2024/01/29 04:06:40;;;;;;;;;16.50;15.25;;;;;5.67;73.51;102416.47;4937552;29;11503;-68
2024/01/29 04:09:09;;;;;;;;;12.25;11.00;;;;;5.65;74.33;102424.63;4930833;29;11606;-69
2024/01/29 04:11:36;;;;;;;;;16.25;16.00;;;;;5.61;74.33;102412.47;4918860;28;12349;-68
2024/01/29 04:14:03;;;;;;;;;17.50;13.00;;;;;5.60;73.59;102410.78;4951261;28;11490;-68
2024/01/29 04:16:31;;;;;;;;;23.00;21.50;;;;;5.55;74.34;102413.00;4923689;28;11541;-68
2024/01/29 04:18:57;;;;;;;;;21.00;18.75;;;;;5.56;73.95;102412.00;4929440;28;11493;-68
2024/01/29 04:21:24;;;;;;;;;14.25;12.75;;;;;5.59;74.08;102400.22;4917287;28;11509;-68
2024/01/29 04:23:52;;;;;;;;;18.25;17.00;;;;;5.56;74.14;102408.50;4931758;28;11473;-68
2024/01/29 04:26:19;;;;;;;;;13.00;13.00;;;;;5.56;74.30;102406.66;4936789;29;11546;-67
2024/01/29 04:28:46;;;;;;;;;17.75;16.25;;;;;5.58;74.02;102407.38;4923994;29;11665;-68
2024/01/29 04:31:14;;;;;;;;;16.50;16.50;;;;;5.59;74.42;102414.44;4926718;29;11706;-67
2024/01/29 04:33:42;;;;;;;;;20.50;19.75;;;;;5.57;74.97;102412.84;4931076;29;11443;-67
2024/01/29 04:36:13;;;;;;;;;21.75;21.00;;;;;5.51;74.97;102411.53;4936038;29;11631;-68
2024/01/29 04:38:43;;;;;;;;;18.50;16.25;;;;;5.54;74.93;102413.09;4929104;29;11503;-67
2024/01/29 04:41:17;;;;;;;;;20.75;18.75;;;;;5.52;74.77;102409.72;4918585;29;11564;-67
2024/01/29 04:43:44;;;;;;;;;18.50;13.25;;;;;5.54;75.29;102408.59;4947593;29;11591;-68
2024/01/29 04:46:11;;;;;;;;;22.50;15.75;;;;;5.58;75.32;102395.84;4932818;29;11627;-66
2024/01/29 04:48:41;;;;;;;;;18.25;17.75;;;;;5.61;75.43;102398.28;4932483;29;11534;-68
2024/01/29 04:51:09;;;;;;;;;17.00;16.25;;;;;5.59;74.77;102393.06;4940519;29;11508;-68
2024/01/29 04:53:36;;;;;;;;;16.75;14.50;;;;;5.61;75.16;102400.94;4924536;29;11547;-68
2024/01/29 04:56:03;;;;;;;;;21.25;21.00;;;;;5.54;75.21;102403.25;4925059;29;12815;-68
2024/01/29 04:58:30;;;;;;;;;16.50;15.75;;;;;5.58;75.62;102407.38;4933093;29;12273;-68
2024/01/29 05:00:58;;;;;;;;;18.25;17.50;;;;;5.59;75.12;102393.06;4948312;28;11488;-66
2024/01/29 05:03:26;;;;;;;;;21.75;18.25;;;;;5.59;75.79;102400.22;4934791;28;12186;-68
2024/01/29 05:05:53;;;;;;;;;18.75;16.75;;;;;5.57;75.48;102404.84;4951963;29;11516;-68
2024/01/29 05:08:19;;;;;;;;;17.50;17.50;;;;;5.58;75.85;102403.88;4918948;29;11495;-68
2024/01/29 05:10:46;;;;;;;;;19.50;18.50;;;;;5.58;75.85;102407.38;4930947;28;11514;-69
2024/01/29 05:13:14;;;;;;;;;19.25;17.50;;;;;5.60;75.73;102399.25;4939555;29;11533;-68
2024/01/29 05:15:41;;;;;;;;;17.50;16.00;;;;;5.59;75.69;102395.75;4924245;29;11530;-68
2024/01/29 05:18:07;;;;;;;;;20.25;19.00;;;;;5.60;75.75;102393.91;4939654;28;11506;-67
2024/01/29 05:20:34;;;;;;;;;19.00;18.50;;;;;5.60;75.97;102391.25;4945826;28;11496;-68
2024/01/29 05:23:01;;;;;;;;;14.75;14.75;;;;;5.61;76.11;102392.94;4931388;29;11570;-68
2024/01/29 05:25:27;;;;;;;;;14.00;13.75;;;;;5.62;76.44;102402.66;4937238;28;11552;-69
2024/01/29 05:27:54;;;;;;;;;16.75;13.25;;;;;5.64;76.43;102398.03;4943910;28;11614;-67
2024/01/29 05:30:20;;;;;;;;;22.75;18.25;;;;;5.64;76.44;102401.56;4937975;28;11485;-69
2024/01/29 05:32:47;;;;;;;;;16.00;16.00;;;;;5.63;76.72;102413.22;4948536;29;11509;-68
2024/01/29 05:35:14;;;;;;;;;19.50;19.00;;;;;5.60;76.48;102405.44;4914224;29;11616;-67
2024/01/29 05:37:40;;;;;;;;;17.25;13.75;;;;;5.61;76.39;102422.31;4931974;29;11518;-68
2024/01/29 05:40:09;;;;;;;;;13.00;12.25;;;;;5.60;76.72;102431.31;4918685;29;12275;-68
2024/01/29 05:42:36;;;;;;;;;17.75;16.00;;;;;5.59;76.97;102433.16;4924188;28;11543;-68
2024/01/29 05:45:03;;;;;;;;;19.00;16.00;;;;;5.62;76.73;102432.88;4936956;28;11597;-68
2024/01/29 05:47:29;;;;;;;;;17.25;12.00;;;;;5.63;76.50;102441.72;4954782;28;11493;-68
2024/01/29 05:49:56;;;;;;;;;9.25;8.50;;;;;5.60;76.99;102442.00;4954827;28;11530;-66
2024/01/29 05:52:23;;;;;;;;;19.00;19.00;;;;;5.58;76.98;102442.09;4929413;28;11468;-68
2024/01/29 05:54:49;;;;;;;;;19.00;18.00;;;;;5.55;77.21;102439.69;4950130;28;11610;-67
2024/01/29 05:57:19;;;;;;;;;21.00;17.75;;;;;5.50;76.95;102447.22;4932259;28;11647;-67
2024/01/29 05:59:45;;;;;;;;;18.75;16.75;;;;;5.46;76.86;102451.94;4948646;28;11501;-68
2024/01/29 06:02:13;;;;;;;;;19.25;19.25;;;;;5.40;76.72;102441.75;4934602;28;12380;-68
2024/01/29 06:04:39;;;;;;;;;21.25;20.50;;;;;5.36;77.17;102439.44;4950574;28;11516;-68
2024/01/29 06:07:06;;;;;;;;;19.75;16.25;;;;;5.28;77.35;102437.38;4939619;29;11504;-68
2024/01/29 06:09:33;;;;;;;;;22.75;20.75;;;;;5.25;77.38;102434.09;4921629;28;11512;-66
2024/01/29 06:11:59;;;;;;;;;21.00;19.50;;;;;5.28;77.49;102453.41;4931000;28;11529;-67
2024/01/29 06:14:26;;;;;;;;;21.50;19.00;;;;;5.19;77.56;102451.47;4944063;28;11663;-68
2024/01/29 06:16:57;;;;;;;;;21.25;20.25;;;;;5.22;77.84;102443.19;4924621;29;11561;-66
2024/01/29 06:19:24;;;;;;;;;19.00;16.75;;;;;5.21;77.29;102454.84;4898108;28;11526;-67
2024/01/29 06:21:51;;;;;;;;;20.75;16.25;;;;;5.19;77.94;102444.28;4931261;28;12241;-67
2024/01/29 06:24:18;;;;;;;;;18.50;13.75;;;;;5.19;78.33;102451.47;4931409;29;11547;-70
2024/01/29 06:26:45;;;;;;;;;18.00;16.75;;;;;5.16;77.91;102449.88;4934518;29;11510;-69
2024/01/29 06:29:14;;;;;;;;;22.75;22.50;;;;;5.13;78.20;102449.25;4927491;29;12314;-70
2024/01/29 06:31:42;;;;;;;;;19.00;17.00;;;;;5.15;78.02;102444.66;4935014;28;11518;-67
2024/01/29 06:34:08;;;;;;;;;15.50;15.25;;;;;5.18;77.91;102436.38;4912913;29;11506;-69
2024/01/29 06:36:35;;;;;;;;;12.75;12.75;;;;;5.20;78.36;102435.31;4932715;28;11516;-69
2024/01/29 06:39:02;;;;;;;;;17.25;14.50;;;;;5.21;78.13;102439.69;4944388;28;11581;-69
2024/01/29 06:41:31;;;;;;;;;14.50;12.75;;;;;5.19;78.43;102441.63;4934287;28;11544;-69
2024/01/29 06:43:57;;;;;;;;;20.00;19.75;;;;;5.17;78.36;102445.38;4923154;28;11579;-69
2024/01/29 06:46:24;;;;;;;;;16.50;16.50;;;;;5.20;78.62;102451.31;4926791;28;11619;-69
2024/01/29 06:48:51;;;;;;;;;19.00;19.00;;;;;5.23;78.76;102452.91;4948819;28;11589;-69
2024/01/29 06:51:18;;;;;;;;;20.25;15.50;;;;;5.25;78.38;102442.97;4938081;28;11688;-67
2024/01/29 06:53:45;;;;;;;;;17.75;13.25;;;;;5.29;78.50;102436.41;4923966;29;11563;-69
2024/01/29 06:56:11;;;;;;;;;13.50;13.50;;;;;5.31;78.77;102447.81;4933289;29;11610;-69
2024/01/29 06:58:38;;;;;;;;;19.00;16.00;;;;;5.29;78.54;102446.25;4934036;29;11530;-68
2024/01/29 07:01:05;;;;;;;;;19.50;18.25;;;;;5.25;79.00;102439.44;4933846;29;11540;-69
2024/01/29 07:03:32;;;;;;;;;20.00;19.00;;;;;5.26;79.44;102444.66;4934149;29;11487;-69
2024/01/29 07:06:00;;;;;;;;;20.00;16.50;;;;;5.26;78.76;102441.97;4932733;29;11603;-69
2024/01/29 07:08:27;;;;;;;;;21.50;18.50;;;;;5.29;78.92;102446.25;4916735;29;11532;-69
2024/01/29 07:10:54;;;;;;;;;19.00;17.25;;;;;5.29;79.22;102451.56;4933915;29;11339;-68
2024/01/29 07:13:20;;;;;;;;;16.50;16.00;;;;;5.32;78.84;102451.34;4933858;29;11532;-69
2024/01/29 07:15:47;;;;;;;;;18.00;17.25;;;;;5.33;79.16;102464.56;4932849;29;11637;-69
2024/01/29 07:18:13;;;;;;;;;20.00;19.50;;;;;5.36;79.03;102467.00;4932631;29;11511;-69
2024/01/29 07:20:43;;;;;;;;;15.50;15.00;;;;;5.41;79.61;102474.66;4933490;29;11483;-69
2024/01/29 07:23:09;;;;;;;;;19.25;15.75;;;;;5.42;79.03;102481.69;4931662;29;11548;-68
2024/01/29 07:25:38;;;;;;;;;18.50;17.00;;;;;5.41;79.45;102496.00;4926243;29;11619;-70
2024/01/29 07:28:05;;;;;;;;;18.75;17.50;;;;;5.44;79.60;102495.78;4933387;29;11544;-69
2024/01/29 07:30:32;;;;;;;;;21.00;19.75;;;;;5.44;79.49;102495.78;4916812;29;11621;-69
2024/01/29 07:32:59;;;;;;;;;24.25;19.50;;;;;5.45;79.63;102500.16;4916355;29;11579;-69
2024/01/29 07:35:27;;;;;;;;;20.25;16.75;;;;;5.42;79.80;102497.72;4900587;29;11674;-69
2024/01/29 07:37:53;;;;;;;;;21.00;16.50;;;;;5.44;79.25;102493.13;4932082;29;11513;-69
2024/01/29 07:40:20;;;;;;;;;17.00;16.25;;;;;5.43;79.83;102481.59;4932394;29;11498;-69
2024/01/29 07:42:47;;;;;;;;;20.00;16.50;;;;;5.45;79.58;102487.63;4932376;29;11649;-69
2024/01/29 07:45:14;;;;;;;;;22.50;18.75;;;;;5.46;79.73;102485.81;4933473;29;11496;-69
2024/01/29 07:47:41;;;;;;;;;21.75;19.00;;;;;5.46;80.45;102494.66;4931796;29;12210;-68
2024/01/29 07:50:08;;;;;;;;;15.25;14.00;;;;;5.46;80.07;102497.34;4932856;29;11472;-66
2024/01/29 07:52:36;;;;;;;;;22.75;22.00;;;;;5.45;80.54;102503.66;4931956;29;11470;-69
2024/01/29 07:55:03;;;;;;;;;18.75;17.75;;;;;5.40;80.35;102507.66;4933236;29;11462;-69
2024/01/29 07:57:30;;;;;;;;;20.75;18.50;;;;;5.45;80.62;102503.66;4931309;29;11478;-67
2024/01/29 07:59:57;;;;;;;;;26.00;20.00;;;;;5.48;80.75;102502.59;4931572;29;11582;-69
2024/01/29 08:02:24;;;;;;;;;19.00;17.50;;;;;5.50;80.36;102508.63;4931480;29;11467;-69
2024/01/29 08:04:51;;;;;;;;;17.75;16.75;;;;;5.54;79.92;102506.59;4932995;29;11450;-69
2024/01/29 08:07:17;;;;;;;;;22.00;21.25;;;;;5.53;80.43;102515.56;4928618;29;11562;-69
2024/01/29 08:09:45;;;;;;;;;30.00;24.50;;;;;5.52;80.28;102505.88;4917092;29;11588;-69
2024/01/29 08:12:12;;;;;;;;;24.25;20.50;;;;;5.50;79.94;102513.97;4933167;29;11487;-69
2024/01/29 08:14:38;;;;;;;;;21.25;20.25;;;;;5.52;80.17;102519.22;4932333;29;12193;-67
2024/01/29 08:17:06;;;;;;;;;22.25;18.50;;;;;5.53;80.47;102515.56;4933574;29;11508;-68
2024/01/29 08:19:33;;;;;;;;;18.75;17.00;;;;;5.53;80.59;102518.25;4931856;29;11590;-67
2024/01/29 08:22:00;;;;;;;;;20.75;19.50;;;;;5.53;80.82;102515.56;4933422;29;11442;-69
2024/01/29 08:24:26;;;;;;;;;14.00;13.25;;;;;5.53;80.98;102511.06;4933239;29;12203;-68
2024/01/29 08:26:53;;;;;;;;;25.25;18.75;;;;;5.59;80.61;102512.41;4932793;29;11470;-68
2024/01/29 08:29:20;;;;;;;;;28.00;21.75;;;;;5.58;80.72;102511.56;4932398;29;11465;-68
2024/01/29 08:31:47;;;;;;;;;27.00;22.50;;;;;5.58;80.89;102518.72;4931855;29;11466;-68
2024/01/29 08:34:13;;;;;;;;;23.00;17.75;;;;;5.61;80.93;102511.31;4931817;29;11531;-69
2024/01/29 08:36:40;;;;;;;;;16.25;16.25;;;;;5.62;80.42;102509.50;4931857;29;11541;-68
2024/01/29 08:39:07;;;;;;;;;16.25;16.25;;;;;5.72;81.96;102498.94;4933268;29;11555;-67
2024/01/29 08:41:34;;;;;;;;;19.25;17.50;;;;;5.76;81.23;102508.44;4932808;29;11446;-69
2024/01/29 08:44:03;;;;;;;;;20.00;20.00;;;;;5.74;81.24;102511.19;4931654;29;11516;-69
2024/01/29 08:46:30;;;;;;;;;25.25;21.75;;;;;5.68;81.48;102504.53;4936229;29;11534;-68
2024/01/29 08:48:56;;;;;;;;;26.25;26.25;;;;;5.67;81.15;102515.31;4935127;29;11512;-69
2024/01/29 08:51:23;;;;;;;;;23.75;21.75;;;;;5.70;80.85;102509.75;4936595;29;11519;-68
2024/01/29 08:53:50;;;;;;;;;21.50;19.50;;;;;5.72;80.99;102517.66;4936411;29;11481;-69
2024/01/29 08:56:17;;;;;;;;;20.75;18.25;;;;;5.75;81.50;102510.22;4935236;29;12196;-68
2024/01/29 08:58:44;;;;;;;;;21.00;18.00;;;;;5.74;81.52;102513.88;4936138;29;11503;-69
2024/01/29 09:01:11;;;;;;;;;22.25;21.00;;;;;5.76;81.31;102529.81;4936158;29;11542;-69
2024/01/29 09:03:38;;;;;;;;;21.75;19.00;;;;;5.77;81.11;102513.63;4936222;29;11485;-68
2024/01/29 09:06:08;;;;;;;;;28.50;22.25;;;;;5.81;81.54;102523.09;4934932;29;11454;-68
2024/01/29 09:08:36;;;;;;;;;29.00;25.50;;;;;5.73;81.18;102528.22;4935968;29;12199;-69
2024/01/29 09:11:03;;;;;;;;;16.00;14.00;;;;;5.82;81.49;102530.16;4935896;29;11457;-69
2024/01/29 09:13:29;;;;;;;;;21.25;20.75;;;;;5.88;81.37;102524.34;4935096;29;12156;-69
2024/01/29 09:15:56;;;;;;;;;19.75;15.00;;;;;5.95;81.63;102524.69;4935879;29;11977;-68
2024/01/29 09:18:25;;;;;;;;;27.25;19.50;;;;;6.04;81.17;102526.66;4922038;29;11488;-68
2024/01/29 09:20:52;;;;;;;;;21.75;19.25;;;;;6.10;81.43;102520.81;4934364;29;11495;-68
2024/01/29 09:23:19;;;;;;;;;24.75;23.75;;;;;6.11;80.78;102514.47;4935505;29;11458;-68
2024/01/29 09:25:46;;;;;;;;;28.75;23.75;;;;;6.19;81.30;102519.22;4915421;29;11496;-69
2024/01/29 09:28:12;;;;;;;;;25.00;24.50;;;;;6.28;80.77;102518.47;4916506;29;11491;-68
2024/01/29 09:30:39;;;;;;;;;24.25;22.75;;;;;6.40;79.66;102517.47;4930135;29;11535;-69
2024/01/29 09:33:08;;;;;;;;;27.50;24.50;;;;;6.44;79.70;102523.41;4916482;29;11602;-68
2024/01/29 09:35:47;;;;;;;;;24.00;23.50;;;;;6.56;80.78;102522.41;4934209;29;11471;-68
2024/01/29 09:38:14;;;;;;;;;26.50;26.50;;;;;6.63;80.09;102518.22;4933664;29;11502;-69
2024/01/29 09:40:45;;;;;;;;;27.25;26.00;;;;;6.78;79.60;102520.63;4935141;29;11462;-68
2024/01/29 09:43:16;;;;;;;;;21.00;21.00;;;;;6.85;79.12;102516.47;4935002;29;11568;-69
2024/01/29 09:45:43;;;;;;;;;26.75;23.50;;;;;6.87;78.61;102514.50;4933984;29;11458;-68
2024/01/29 09:48:14;;;;;;;;;19.25;19.25;;;;;6.99;79.41;102524.16;4935072;29;11481;-68
2024/01/29 09:50:42;;;;;;;;;30.75;25.00;;;;;6.97;78.58;102525.25;4935132;29;11515;-67
2024/01/29 09:53:11;;;;;;;;;24.50;22.25;;;;;6.97;78.49;102527.94;4935311;29;11623;-66
2024/01/29 09:55:37;;;;;;;;;24.75;24.25;;;;;7.00;78.56;102523.19;4935450;29;11502;-66
2024/01/29 09:58:04;;;;;;;;;30.25;27.75;;;;;6.99;78.75;102534.03;4933627;29;11548;-66
2024/01/29 10:00:31;;;;;;;;;27.50;25.25;;;;;7.04;78.87;102537.16;4935353;29;11533;-66
2024/01/29 10:03:04;;;;;;;;;30.75;25.25;;;;;7.07;78.87;102540.44;4934979;29;11508;-66
2024/01/29 10:05:31;;;;;;;;;27.00;24.50;;;;;7.00;78.93;102543.75;4935238;29;11655;-66
2024/01/29 10:07:59;;;;;;;;;27.00;27.00;;;;;7.01;79.22;102546.31;4934541;29;11559;-66
2024/01/29 10:10:26;;;;;;;;;24.25;24.25;;;;;7.08;79.33;102554.66;4934040;29;11528;-66
2024/01/29 10:13:04;;;;;;;;;24.25;23.75;;;;;7.16;78.57;102546.84;4935110;29;11526;-66
2024/01/29 10:15:31;;;;;;;;;27.00;24.00;;;;;7.18;79.36;102545.75;4934748;29;11517;-67
2024/01/29 10:17:58;;;;;;;;;22.75;21.50;;;;;7.29;79.47;102550.19;4932965;29;11634;-68
2024/01/29 10:20:25;;;;;;;;;23.75;22.75;;;;;7.34;79.46;102557.84;4934714;29;11600;-66
2024/01/29 10:23:02;;;;;;;;;24.50;23.75;;;;;7.39;79.66;102558.28;4933192;29;11672;-66
2024/01/29 10:25:29;;;;;;;;;26.00;23.50;;;;;7.46;78.76;102555.94;4934915;29;12230;-65
2024/01/29 10:28:09;;;;;;;;;31.75;29.25;;;;;7.43;78.49;102570.44;4934456;29;11610;-66
2024/01/29 10:30:36;;;;;;;;;26.50;24.25;;;;;7.42;79.40;102568.75;4934595;29;11559;-65
2024/01/29 10:33:03;;;;;;;;;27.50;26.75;;;;;7.44;78.82;102559.56;4933488;29;11541;-66
2024/01/29 10:35:30;;;;;;;;;27.50;25.75;;;;;7.51;79.46;102559.91;4934607;29;11509;-65
2024/01/29 10:38:03;;;;;;;;;29.75;24.50;;;;;7.56;79.41;102559.50;4934818;29;11574;-65
2024/01/29 10:40:31;;;;;;;;;34.75;30.75;;;;;7.52;79.20;102555.41;4934681;29;11522;-66
2024/01/29 10:43:00;;;;;;;;;34.00;27.50;;;;;7.51;79.90;102567.94;4934335;29;11548;-67
2024/01/29 10:45:27;;;;;;;;;26.00;24.75;;;;;7.50;79.92;102563.56;4933195;29;11529;-68
2024/01/29 10:48:27;;;;;;;;;18.25;18.25;;;;;7.53;79.90;102574.00;4934159;29;11581;-65
2024/01/29 10:50:55;;;;;;;;;34.00;32.00;;;;;7.50;80.51;102576.97;4896045;29;11617;-66
2024/01/29 10:53:22;;;;;;;;;31.25;27.75;;;;;7.53;80.78;102563.28;4932868;29;11643;-68
2024/01/29 10:55:50;;;;;;;;;35.00;29.25;;;;;7.49;81.00;102569.88;4934082;29;11546;-66
2024/01/29 10:58:18;;;;;;;;;34.25;32.50;;;;;7.51;81.69;102561.75;4916766;29;11540;-64
2024/01/29 11:00:46;;;;;;;;;30.25;27.75;;;;;7.67;81.29;102562.13;4934004;29;11529;-65
2024/01/29 11:03:14;;;;;;;;;33.00;30.75;;;;;7.71;80.98;102571.59;4933980;29;12265;-65
2024/01/29 11:05:55;;;;;;;;;29.50;27.00;;;;;7.74;81.71;102563.28;4933902;29;11526;-64
2024/01/29 11:08:27;;;;;;;;;26.75;23.00;;;;;7.80;80.92;102570.78;4915744;29;12284;-65
2024/01/29 11:10:54;;;;;;;;;33.25;33.00;;;;;7.72;81.71;102569.75;4933711;29;11590;-65
2024/01/29 11:13:22;;;;;;;;;36.25;32.25;;;;;7.77;81.88;102568.34;4933758;29;11527;-64
2024/01/29 11:15:50;;;;;;;;;28.25;27.75;;;;;7.82;82.01;102566.16;4933567;29;11513;-64
2024/01/29 11:18:17;;;;;;;;;43.25;36.50;;;;;7.79;82.62;102576.28;4933135;29;11566;-64